createdAt,value
2019-01-27T00:02:15.521Z,7.27
2019-01-27T00:07:23.162Z,5.99
2019-01-27T00:12:30.878Z,6.17
2019-01-27T00:17:38.566Z,6.43
2019-01-27T00:22:46.273Z,6.75
2019-01-27T00:27:54.116Z,6.64
2019-01-27T00:33:01.828Z,7.01
2019-01-27T00:38:09.479Z,7.15
2019-01-27T00:43:17.168Z,7.47
2019-01-27T00:48:24.814Z,7.58
2019-01-27T00:53:32.537Z,7.38
2019-01-27T00:58:40.210Z,7.76
2019-01-27T01:03:48.172Z,7.51
2019-01-27T01:08:55.852Z,8.92
2019-01-27T01:14:03.504Z,7.45
2019-01-27T01:19:11.152Z,9.44
2019-01-27T01:24:18.855Z,7.83
2019-01-27T01:29:26.573Z,7.63
2019-01-27T01:34:34.246Z,7.87
2019-01-27T01:39:41.889Z,7.36
2019-01-27T01:44:49.655Z,8.03
2019-01-27T01:49:57.557Z,6.72
2019-01-27T01:55:05.230Z,6.82
2019-01-27T02:00:12.885Z,7.01
2019-01-27T02:05:20.580Z,6.09
2019-01-27T02:10:28.221Z,6.20
2019-01-27T02:15:35.896Z,6.46
2019-01-27T02:20:43.551Z,7.56
2019-01-27T02:25:51.294Z,6.15
2019-01-27T02:30:59.148Z,6.00
2019-01-27T02:36:07.026Z,6.97
2019-01-27T02:41:14.660Z,6.21
2019-01-27T02:46:22.382Z,6.39
2019-01-27T02:51:30.009Z,6.04
2019-01-27T02:56:37.665Z,5.83
2019-01-27T03:01:45.313Z,5.63
2019-01-27T03:06:53.052Z,5.82
2019-01-27T03:12:00.677Z,5.68
2019-01-27T03:17:08.413Z,5.23
2019-01-27T03:22:16.103Z,5.17
2019-01-27T03:27:23.785Z,6.10
2019-01-27T03:32:31.442Z,5.00
2019-01-27T03:37:39.140Z,5.37
2019-01-27T03:42:47.101Z,6.55
2019-01-27T03:47:54.837Z,5.22
2019-01-27T03:53:02.488Z,5.62
2019-01-27T03:58:10.249Z,5.73
2019-01-27T04:03:17.915Z,5.73
2019-01-27T04:08:25.619Z,6.56
2019-01-27T04:13:33.242Z,5.15
2019-01-27T04:18:40.945Z,4.52
2019-01-27T04:23:48.559Z,4.86
2019-01-27T04:28:56.273Z,4.80
2019-01-27T04:34:03.954Z,4.17
2019-01-27T04:39:11.657Z,4.03
2019-01-27T04:44:19.380Z,3.52
2019-01-27T04:49:27.088Z,3.23
2019-01-27T04:54:34.776Z,3.12
2019-01-27T04:59:42.513Z,3.12
2019-01-27T05:04:50.165Z,2.75
2019-01-27T05:09:57.800Z,2.88
2019-01-27T05:15:05.441Z,2.81
2019-01-27T05:20:13.149Z,3.20
2019-01-27T05:25:20.798Z,2.49
2019-01-27T05:30:28.496Z,2.52
2019-01-27T05:35:36.135Z,2.27
2019-01-27T05:40:43.849Z,2.02
2019-01-27T05:45:51.519Z,2.07
2019-01-27T05:50:59.234Z,2.05
2019-01-27T05:56:07.191Z,2.38
2019-01-27T06:01:14.890Z,2.20
2019-01-27T06:06:22.549Z,2.01
2019-01-27T06:12:11.006Z,2.62
2019-01-27T06:17:18.713Z,2.21
2019-01-27T06:22:26.755Z,2.47
2019-01-27T06:27:34.441Z,2.47
2019-01-27T06:32:42.150Z,2.15
2019-01-27T06:37:49.774Z,2.45
2019-01-27T06:42:57.569Z,2.23
2019-01-27T06:48:05.213Z,2.35
2019-01-27T06:53:12.974Z,2.71
2019-01-27T06:58:20.644Z,2.31
2019-01-27T07:03:28.377Z,2.75
2019-01-27T07:08:36.018Z,2.47
2019-01-27T07:13:43.724Z,2.50
2019-01-27T07:18:51.376Z,2.57
2019-01-27T07:23:59.048Z,2.84
2019-01-27T07:29:06.673Z,2.73
2019-01-27T07:34:14.437Z,3.32
2019-01-27T07:39:22.143Z,2.60
2019-01-27T07:44:29.871Z,3.20
2019-01-27T07:49:37.544Z,2.84
2019-01-27T07:54:45.260Z,2.84
2019-01-27T07:59:52.944Z,2.32
2019-01-27T08:05:00.744Z,2.61
2019-01-27T08:10:08.610Z,2.76
2019-01-27T08:15:16.327Z,2.72
2019-01-27T08:20:24.225Z,2.80
2019-01-27T08:25:32.192Z,3.20
2019-01-27T08:30:39.780Z,2.98
2019-01-27T08:35:47.522Z,2.69
2019-01-27T08:40:55.228Z,3.09
2019-01-27T08:46:02.925Z,2.83
2019-01-27T08:51:10.565Z,2.76
2019-01-27T08:56:18.305Z,3.16
2019-01-27T09:01:26.157Z,3.69
2019-01-27T09:06:33.961Z,4.69
2019-01-27T09:11:41.635Z,3.82
2019-01-27T09:16:49.333Z,4.36
2019-01-27T09:21:57.031Z,2.78
2019-01-27T09:27:04.729Z,2.56
2019-01-27T09:32:37.336Z,2.54
2019-01-27T09:37:44.977Z,2.87
2019-01-27T09:42:52.613Z,2.45
2019-01-27T09:48:00.246Z,2.91
2019-01-27T09:53:07.869Z,2.90
2019-01-27T09:58:15.525Z,2.63
2019-01-27T10:03:23.146Z,2.61
2019-01-27T10:08:30.834Z,2.49
2019-01-27T10:13:40.928Z,2.55
2019-01-27T10:18:40.494Z,4.11
2019-01-27T10:23:48.134Z,2.88
2019-01-27T10:28:55.849Z,3.30
2019-01-27T10:34:04.687Z,3.58
2019-01-27T10:39:12.384Z,3.69
2019-01-27T10:44:21.188Z,3.84
2019-01-27T10:49:29.209Z,4.05
2019-01-27T10:54:36.856Z,4.34
2019-01-27T10:59:44.572Z,4.48
2019-01-27T11:04:52.212Z,5.33
2019-01-27T11:09:59.921Z,4.57
2019-01-27T11:15:07.561Z,4.78
2019-01-27T11:20:15.197Z,5.32
2019-01-27T11:25:22.837Z,5.72
2019-01-27T11:30:30.536Z,6.82
2019-01-27T11:35:38.237Z,5.44
2019-01-27T11:40:45.952Z,5.50
2019-01-27T11:45:53.834Z,6.05
2019-01-27T11:51:01.744Z,6.09
2019-01-27T11:56:09.413Z,7.09
2019-01-27T12:01:17.244Z,7.29
2019-01-27T12:06:24.852Z,8.85
2019-01-27T12:11:32.570Z,9.03
2019-01-27T12:16:40.207Z,7.77
2019-01-27T12:21:47.900Z,7.60
2019-01-27T12:26:55.608Z,8.18
2019-01-27T12:32:03.306Z,8.72
2019-01-27T12:37:11.247Z,7.66
2019-01-27T12:42:19.029Z,2.89
2019-01-27T12:47:26.938Z,2.62
2019-01-27T12:52:34.626Z,2.15
2019-01-27T12:57:42.289Z,2.29
2019-01-27T13:02:49.947Z,2.08
2019-01-27T13:07:57.589Z,2.10
2019-01-27T13:13:05.289Z,1.90
2019-01-27T13:18:12.940Z,2.36
2019-01-27T13:23:20.650Z,2.34
2019-01-27T13:28:28.270Z,2.29
2019-01-27T13:33:35.932Z,2.08
2019-01-27T13:38:43.557Z,2.33
2019-01-27T13:43:51.301Z,2.43
2019-01-27T13:48:58.956Z,2.16
2019-01-27T13:54:06.734Z,2.15
2019-01-27T13:59:14.367Z,2.51
2019-01-27T14:04:22.060Z,2.33
2019-01-27T14:09:29.702Z,2.18
2019-01-27T14:14:37.448Z,2.27
2019-01-27T14:19:45.109Z,2.40
2019-01-27T14:24:52.784Z,2.31
2019-01-27T14:30:00.419Z,2.49
2019-01-27T14:35:08.092Z,2.62
2019-01-27T14:40:15.757Z,2.66
2019-01-27T14:45:23.448Z,2.83
2019-01-27T14:50:31.237Z,3.15
2019-01-27T14:55:38.885Z,3.17
2019-01-27T15:00:46.554Z,2.70
2019-01-27T15:05:54.354Z,2.67
2019-01-27T15:11:02.005Z,3.63
2019-01-27T15:16:09.896Z,3.23
2019-01-27T15:21:17.546Z,3.54
2019-01-27T15:26:25.232Z,2.78
2019-01-27T15:31:33.178Z,2.83
2019-01-27T15:36:40.934Z,2.71
2019-01-27T15:41:48.574Z,3.01
2019-01-27T15:46:56.908Z,2.93
2019-01-27T15:52:04.608Z,2.82
2019-01-27T15:57:12.323Z,3.47
2019-01-27T16:02:20.087Z,2.98
2019-01-27T16:07:27.860Z,3.30
2019-01-27T16:12:35.499Z,3.55
2019-01-27T16:17:43.231Z,3.09
2019-01-27T16:22:50.881Z,2.96
2019-01-27T16:27:58.533Z,3.28
2019-01-27T16:33:06.200Z,3.36
2019-01-27T16:38:13.941Z,3.95
2019-01-27T16:43:21.603Z,3.25
2019-01-27T16:48:29.320Z,3.47
2019-01-27T16:53:37.320Z,3.69
2019-01-27T16:58:44.989Z,3.53
2019-01-27T17:03:52.814Z,4.13
2019-01-27T17:09:00.809Z,3.89
2019-01-27T17:14:08.460Z,3.48
2019-01-27T17:19:16.174Z,3.80
2019-01-27T17:24:23.801Z,3.33
2019-01-27T17:29:31.542Z,3.54
2019-01-27T17:34:39.436Z,3.65
2019-01-27T17:39:47.155Z,4.28
2019-01-27T17:44:54.794Z,3.46
2019-01-27T17:50:02.532Z,3.76
2019-01-27T17:55:10.197Z,3.22
2019-01-27T18:00:17.856Z,3.22
2019-01-27T18:05:25.598Z,3.30
2019-01-27T18:10:33.254Z,3.49
2019-01-27T18:15:40.899Z,3.34
2019-01-27T18:20:48.545Z,3.06
2019-01-27T18:25:56.199Z,3.52
2019-01-27T18:31:03.870Z,3.73
2019-01-27T18:36:12.191Z,4.12
2019-01-27T18:41:19.806Z,3.34
2019-01-27T18:46:28.036Z,3.52
2019-01-27T18:51:34.737Z,3.74
2019-01-27T18:56:42.408Z,3.93
2019-01-27T19:01:50.065Z,4.13
2019-01-27T19:06:57.778Z,3.44
2019-01-27T19:12:05.393Z,2.70
2019-01-27T19:17:13.035Z,4.28
2019-01-27T19:22:20.693Z,4.00
2019-01-27T19:27:28.338Z,4.78
2019-01-27T19:32:35.967Z,6.25
2019-01-27T19:37:43.625Z,4.66
2019-01-27T19:42:51.313Z,4.15
2019-01-27T19:47:59.072Z,4.84
2019-01-27T19:53:06.720Z,5.91
2019-01-27T19:58:14.437Z,7.20
2019-01-27T20:03:22.146Z,7.20
2019-01-27T20:08:29.857Z,8.80
2019-01-27T20:13:37.616Z,8.00
2019-01-27T20:18:45.289Z,7.18
2019-01-27T20:23:52.995Z,9.54
2019-01-27T20:29:00.634Z,8.06
2019-01-27T20:34:08.354Z,7.50
2019-01-27T20:39:16.012Z,7.90
2019-01-27T20:44:23.693Z,7.22
2019-01-27T20:49:31.344Z,7.51
2019-01-27T20:54:38.993Z,10.04
2019-01-27T20:59:46.716Z,13.42
2019-01-27T21:04:56.606Z,11.09
2019-01-27T21:10:01.687Z,14.52
2019-01-27T21:15:09.378Z,10.53
2019-01-27T21:20:17.102Z,10.44
2019-01-27T21:25:24.764Z,11.61
2019-01-27T21:30:32.468Z,11.36
2019-01-27T21:35:40.168Z,12.00
2019-01-27T21:40:47.824Z,11.01
2019-01-27T21:45:55.793Z,10.09
2019-01-27T21:51:03.564Z,10.17
2019-01-27T21:56:11.261Z,9.38
2019-01-27T22:01:19.002Z,7.28
2019-01-27T22:06:26.696Z,5.10
2019-01-27T22:11:34.366Z,4.13
2019-01-27T22:16:41.993Z,4.33
2019-01-27T22:21:49.684Z,4.31
2019-01-27T22:26:57.317Z,4.06
2019-01-27T22:32:05.080Z,5.13
2019-01-27T22:37:12.905Z,6.17
2019-01-27T22:42:20.761Z,9.07
2019-01-27T22:47:28.429Z,9.28
2019-01-27T22:52:36.093Z,6.29
2019-01-27T22:57:43.720Z,5.53
2019-01-27T23:02:51.672Z,5.01
2019-01-27T23:07:59.316Z,5.51
2019-01-27T23:13:07.019Z,5.90
2019-01-27T23:18:14.697Z,7.59
2019-01-27T23:23:22.362Z,6.17
2019-01-27T23:28:30.072Z,7.21
2019-01-27T23:33:37.746Z,9.39
2019-01-27T23:38:45.419Z,6.82
2019-01-27T23:43:53.050Z,5.81
2019-01-27T23:49:01.098Z,6.29
2019-01-27T23:54:08.772Z,6.89
2019-01-27T23:59:16.742Z,6.39
